sensor_id;sensor_type;location;lat;lon;timestamp;temperature;humidity
37646;DHT22;23489;49.600;6.138;2022-08-21T00:01:57;16.20;99.90
37646;DHT22;23489;49.600;6.138;2022-08-21T00:04:23;16.20;99.90
37646;DHT22;23489;49.600;6.138;2022-08-21T00:06:51;16.10;99.90
37646;DHT22;23489;49.600;6.138;2022-08-21T00:09:17;16.10;99.90
37646;DHT22;23489;49.600;6.138;2022-08-21T00:11:43;16.10;99.90
37646;DHT22;23489;49.600;6.138;2022-08-21T00:14:10;16.00;99.90
37646;DHT22;23489;49.600;6.138;2022-08-21T00:16:37;16.00;99.90
37646;DHT22;23489;49.600;6.138;2022-08-21T00:19:04;16.00;99.90
37646;DHT22;23489;49.600;6.138;2022-08-21T00:21:32;16.00;99.90
37646;DHT22;23489;49.600;6.138;2022-08-21T00:23:57;16.00;99.90
37646;DHT22;23489;49.600;6.138;2022-08-21T00:26:23;15.90;99.90
37646;DHT22;23489;49.600;6.138;2022-08-21T00:28:49;15.90;99.90
37646;DHT22;23489;49.600;6.138;2022-08-21T00:31:16;15.90;99.90
37646;DHT22;23489;49.600;6.138;2022-08-21T00:33:42;15.80;99.90
37646;DHT22;23489;49.600;6.138;2022-08-21T00:36:08;15.80;99.90
37646;DHT22;23489;49.600;6.138;2022-08-21T00:38:33;15.70;99.90
37646;DHT22;23489;49.600;6.138;2022-08-21T00:41:01;15.80;99.90
37646;DHT22;23489;49.600;6.138;2022-08-21T00:43:30;15.70;99.90
37646;DHT22;23489;49.600;6.138;2022-08-21T00:45:59;15.70;99.90
37646;DHT22;23489;49.600;6.138;2022-08-21T00:48:25;15.70;99.90
37646;DHT22;23489;49.600;6.138;2022-08-21T00:50:56;15.70;99.90
37646;DHT22;23489;49.600;6.138;2022-08-21T00:53:22;15.60;99.90
37646;DHT22;23489;49.600;6.138;2022-08-21T00:55:49;15.70;99.90
37646;DHT22;23489;49.600;6.138;2022-08-21T00:58:16;15.60;99.90
37646;DHT22;23489;49.600;6.138;2022-08-21T01:00:43;15.60;99.90
37646;DHT22;23489;49.600;6.138;2022-08-21T01:03:13;15.50;99.90
37646;DHT22;23489;49.600;6.138;2022-08-21T01:05:39;15.50;99.90
37646;DHT22;23489;49.600;6.138;2022-08-21T01:08:06;15.50;99.90
37646;DHT22;23489;49.600;6.138;2022-08-21T01:10:33;15.40;99.90
37646;DHT22;23489;49.600;6.138;2022-08-21T01:13:01;15.40;99.90
37646;DHT22;23489;49.600;6.138;2022-08-21T01:15:32;15.40;99.90
37646;DHT22;23489;49.600;6.138;2022-08-21T01:18:00;15.40;99.90
37646;DHT22;23489;49.600;6.138;2022-08-21T01:20:26;15.40;99.90
37646;DHT22;23489;49.600;6.138;2022-08-21T01:22:52;15.30;99.90
37646;DHT22;23489;49.600;6.138;2022-08-21T01:25:18;15.30;99.90
37646;DHT22;23489;49.600;6.138;2022-08-21T01:27:48;15.30;99.90
37646;DHT22;23489;49.600;6.138;2022-08-21T01:30:18;15.20;99.90
37646;DHT22;23489;49.600;6.138;2022-08-21T01:32:45;15.20;99.90
37646;DHT22;23489;49.600;6.138;2022-08-21T01:35:13;15.20;99.90
37646;DHT22;23489;49.600;6.138;2022-08-21T01:37:39;15.20;99.90
37646;DHT22;23489;49.600;6.138;2022-08-21T01:40:06;15.10;99.90
37646;DHT22;23489;49.600;6.138;2022-08-21T01:42:33;15.10;99.90
37646;DHT22;23489;49.600;6.138;2022-08-21T01:44:59;15.10;99.90
37646;DHT22;23489;49.600;6.138;2022-08-21T01:47:25;15.00;99.90
37646;DHT22;23489;49.600;6.138;2022-08-21T01:49:51;15.00;99.90
37646;DHT22;23489;49.600;6.138;2022-08-21T01:52:16;14.90;99.90
37646;DHT22;23489;49.600;6.138;2022-08-21T01:54:42;14.80;99.90
37646;DHT22;23489;49.600;6.138;2022-08-21T01:57:09;14.80;99.90
37646;DHT22;23489;49.600;6.138;2022-08-21T01:59:36;14.80;99.90
37646;DHT22;23489;49.600;6.138;2022-08-21T02:02:03;14.70;99.90
37646;DHT22;23489;49.600;6.138;2022-08-21T02:04:28;14.70;99.90
37646;DHT22;23489;49.600;6.138;2022-08-21T02:06:55;14.70;99.90
37646;DHT22;23489;49.600;6.138;2022-08-21T02:09:21;14.60;99.90
37646;DHT22;23489;49.600;6.138;2022-08-21T02:11:47;14.60;99.90
37646;DHT22;23489;49.600;6.138;2022-08-21T02:14:14;14.50;99.90
37646;DHT22;23489;49.600;6.138;2022-08-21T02:16:42;14.40;99.90
37646;DHT22;23489;49.600;6.138;2022-08-21T02:19:09;14.30;99.90
37646;DHT22;23489;49.600;6.138;2022-08-21T02:21:35;14.30;99.90
37646;DHT22;23489;49.600;6.138;2022-08-21T02:24:01;14.20;99.90
37646;DHT22;23489;49.600;6.138;2022-08-21T02:26:27;14.20;99.90
37646;DHT22;23489;49.600;6.138;2022-08-21T02:28:52;14.20;99.90
37646;DHT22;23489;49.600;6.138;2022-08-21T02:31:18;14.20;99.90
37646;DHT22;23489;49.600;6.138;2022-08-21T02:33:44;14.30;99.90
37646;DHT22;23489;49.600;6.138;2022-08-21T02:36:10;14.30;99.90
37646;DHT22;23489;49.600;6.138;2022-08-21T02:38:38;14.30;99.90
37646;DHT22;23489;49.600;6.138;2022-08-21T02:41:11;14.30;99.90
37646;DHT22;23489;49.600;6.138;2022-08-21T02:43:37;14.30;99.90
37646;DHT22;23489;49.600;6.138;2022-08-21T02:46:04;14.30;99.90
37646;DHT22;23489;49.600;6.138;2022-08-21T02:48:32;14.30;99.90
37646;DHT22;23489;49.600;6.138;2022-08-21T02:51:02;14.30;99.90
37646;DHT22;23489;49.600;6.138;2022-08-21T02:53:29;14.30;99.90
37646;DHT22;23489;49.600;6.138;2022-08-21T02:55:58;14.30;99.90
37646;DHT22;23489;49.600;6.138;2022-08-21T02:58:34;14.30;99.90
37646;DHT22;23489;49.600;6.138;2022-08-21T03:01:00;14.30;99.90
37646;DHT22;23489;49.600;6.138;2022-08-21T03:03:27;14.20;99.90
37646;DHT22;23489;49.600;6.138;2022-08-21T03:05:53;14.20;99.90
37646;DHT22;23489;49.600;6.138;2022-08-21T03:08:19;14.10;99.90
37646;DHT22;23489;49.600;6.138;2022-08-21T03:10:48;14.10;99.90
37646;DHT22;23489;49.600;6.138;2022-08-21T03:13:16;14.00;99.90
37646;DHT22;23489;49.600;6.138;2022-08-21T03:15:42;14.00;99.90
37646;DHT22;23489;49.600;6.138;2022-08-21T03:18:09;14.00;99.90
37646;DHT22;23489;49.600;6.138;2022-08-21T03:20:36;14.00;99.90
37646;DHT22;23489;49.600;6.138;2022-08-21T03:23:03;14.00;99.90
37646;DHT22;23489;49.600;6.138;2022-08-21T03:25:31;13.90;99.90
37646;DHT22;23489;49.600;6.138;2022-08-21T03:28:01;13.90;99.90
37646;DHT22;23489;49.600;6.138;2022-08-21T03:30:27;13.90;99.90
37646;DHT22;23489;49.600;6.138;2022-08-21T03:32:53;13.90;99.90
37646;DHT22;23489;49.600;6.138;2022-08-21T03:35:19;13.80;99.90
37646;DHT22;23489;49.600;6.138;2022-08-21T03:37:46;13.80;99.90
37646;DHT22;23489;49.600;6.138;2022-08-21T03:40:14;13.80;99.90
37646;DHT22;23489;49.600;6.138;2022-08-21T03:42:40;13.80;99.90
37646;DHT22;23489;49.600;6.138;2022-08-21T03:45:06;13.80;99.90
37646;DHT22;23489;49.600;6.138;2022-08-21T03:47:32;13.80;99.90
37646;DHT22;23489;49.600;6.138;2022-08-21T03:49:58;13.70;99.90
37646;DHT22;23489;49.600;6.138;2022-08-21T03:52:25;13.80;99.90
37646;DHT22;23489;49.600;6.138;2022-08-21T03:54:50;13.70;99.90
37646;DHT22;23489;49.600;6.138;2022-08-21T03:57:16;13.70;99.90
37646;DHT22;23489;49.600;6.138;2022-08-21T03:59:42;13.70;99.90
37646;DHT22;23489;49.600;6.138;2022-08-21T04:02:09;13.70;99.90
37646;DHT22;23489;49.600;6.138;2022-08-21T04:04:35;13.70;99.90
37646;DHT22;23489;49.600;6.138;2022-08-21T04:07:02;13.60;99.90
37646;DHT22;23489;49.600;6.138;2022-08-21T04:09:28;13.60;99.90
37646;DHT22;23489;49.600;6.138;2022-08-21T04:11:55;13.50;99.90
37646;DHT22;23489;49.600;6.138;2022-08-21T04:14:21;13.60;99.90
37646;DHT22;23489;49.600;6.138;2022-08-21T04:16:48;13.50;99.90
37646;DHT22;23489;49.600;6.138;2022-08-21T04:19:14;13.50;99.90
37646;DHT22;23489;49.600;6.138;2022-08-21T04:21:40;13.60;99.90
37646;DHT22;23489;49.600;6.138;2022-08-21T04:24:07;13.60;99.90
37646;DHT22;23489;49.600;6.138;2022-08-21T04:26:35;13.50;99.90
37646;DHT22;23489;49.600;6.138;2022-08-21T04:29:01;13.40;99.90
37646;DHT22;23489;49.600;6.138;2022-08-21T04:31:27;13.30;99.90
37646;DHT22;23489;49.600;6.138;2022-08-21T04:33:54;13.30;99.90
37646;DHT22;23489;49.600;6.138;2022-08-21T04:36:20;13.20;99.90
37646;DHT22;23489;49.600;6.138;2022-08-21T04:38:46;13.20;99.90
37646;DHT22;23489;49.600;6.138;2022-08-21T04:41:12;13.20;99.90
37646;DHT22;23489;49.600;6.138;2022-08-21T04:43:39;13.20;99.90
37646;DHT22;23489;49.600;6.138;2022-08-21T04:46:05;13.30;99.90
37646;DHT22;23489;49.600;6.138;2022-08-21T04:48:31;13.20;99.90
37646;DHT22;23489;49.600;6.138;2022-08-21T04:51:13;13.30;99.90
37646;DHT22;23489;49.600;6.138;2022-08-21T04:53:47;13.20;99.90
37646;DHT22;23489;49.600;6.138;2022-08-21T04:56:24;13.20;99.90
37646;DHT22;23489;49.600;6.138;2022-08-21T04:58:53;13.30;99.90
37646;DHT22;23489;49.600;6.138;2022-08-21T05:01:23;13.30;99.90
37646;DHT22;23489;49.600;6.138;2022-08-21T05:03:54;13.40;99.90
37646;DHT22;23489;49.600;6.138;2022-08-21T05:06:21;13.40;99.90
37646;DHT22;23489;49.600;6.138;2022-08-21T05:08:50;13.40;99.90
37646;DHT22;23489;49.600;6.138;2022-08-21T05:11:17;13.50;99.90
37646;DHT22;23489;49.600;6.138;2022-08-21T05:13:43;13.50;99.90
37646;DHT22;23489;49.600;6.138;2022-08-21T05:16:09;13.60;99.90
37646;DHT22;23489;49.600;6.138;2022-08-21T05:18:34;13.70;99.90
37646;DHT22;23489;49.600;6.138;2022-08-21T05:21:00;13.70;99.90
37646;DHT22;23489;49.600;6.138;2022-08-21T05:23:26;13.70;99.90
37646;DHT22;23489;49.600;6.138;2022-08-21T05:25:52;13.80;99.90
37646;DHT22;23489;49.600;6.138;2022-08-21T05:28:18;13.80;99.90
37646;DHT22;23489;49.600;6.138;2022-08-21T05:30:44;13.80;99.90
37646;DHT22;23489;49.600;6.138;2022-08-21T05:33:10;13.80;99.90
37646;DHT22;23489;49.600;6.138;2022-08-21T05:35:37;13.80;99.90
37646;DHT22;23489;49.600;6.138;2022-08-21T05:38:03;13.90;99.90
37646;DHT22;23489;49.600;6.138;2022-08-21T05:40:29;13.90;99.90
37646;DHT22;23489;49.600;6.138;2022-08-21T05:42:55;14.00;99.90
37646;DHT22;23489;49.600;6.138;2022-08-21T05:45:23;14.00;99.90
37646;DHT22;23489;49.600;6.138;2022-08-21T05:47:49;14.00;99.90
37646;DHT22;23489;49.600;6.138;2022-08-21T05:50:15;14.10;99.90
37646;DHT22;23489;49.600;6.138;2022-08-21T05:52:40;14.20;99.90
37646;DHT22;23489;49.600;6.138;2022-08-21T05:55:06;14.20;99.90
37646;DHT22;23489;49.600;6.138;2022-08-21T05:57:32;14.30;99.90
37646;DHT22;23489;49.600;6.138;2022-08-21T05:59:58;14.30;99.90
37646;DHT22;23489;49.600;6.138;2022-08-21T06:02:23;14.40;99.90
37646;DHT22;23489;49.600;6.138;2022-08-21T06:04:49;14.50;99.90
37646;DHT22;23489;49.600;6.138;2022-08-21T06:07:15;14.70;99.90
37646;DHT22;23489;49.600;6.138;2022-08-21T06:09:41;14.80;99.90
37646;DHT22;23489;49.600;6.138;2022-08-21T06:12:09;14.90;99.90
37646;DHT22;23489;49.600;6.138;2022-08-21T06:14:36;15.00;99.90
37646;DHT22;23489;49.600;6.138;2022-08-21T06:17:07;15.10;99.90
37646;DHT22;23489;49.600;6.138;2022-08-21T06:19:35;15.40;99.90
37646;DHT22;23489;49.600;6.138;2022-08-21T06:22:02;15.60;99.90
37646;DHT22;23489;49.600;6.138;2022-08-21T06:24:28;15.70;99.90
37646;DHT22;23489;49.600;6.138;2022-08-21T06:26:54;15.80;99.90
37646;DHT22;23489;49.600;6.138;2022-08-21T06:29:20;16.00;99.90
37646;DHT22;23489;49.600;6.138;2022-08-21T06:31:48;16.10;99.90
37646;DHT22;23489;49.600;6.138;2022-08-21T06:34:14;16.10;99.90
37646;DHT22;23489;49.600;6.138;2022-08-21T06:36:40;16.40;99.90
37646;DHT22;23489;49.600;6.138;2022-08-21T06:39:06;16.60;99.90
37646;DHT22;23489;49.600;6.138;2022-08-21T06:41:32;16.60;99.90
37646;DHT22;23489;49.600;6.138;2022-08-21T06:43:58;16.70;99.90
37646;DHT22;23489;49.600;6.138;2022-08-21T06:46:26;17.30;99.90
37646;DHT22;23489;49.600;6.138;2022-08-21T06:48:52;18.20;99.90
37646;DHT22;23489;49.600;6.138;2022-08-21T06:51:18;19.70;99.90
37646;DHT22;23489;49.600;6.138;2022-08-21T06:53:44;21.30;99.90
37646;DHT22;23489;49.600;6.138;2022-08-21T06:56:10;22.30;99.90
37646;DHT22;23489;49.600;6.138;2022-08-21T06:58:36;23.10;99.90
37646;DHT22;23489;49.600;6.138;2022-08-21T07:01:02;24.80;97.30
37646;DHT22;23489;49.600;6.138;2022-08-21T07:03:35;25.40;95.10
37646;DHT22;23489;49.600;6.138;2022-08-21T07:06:01;26.80;91.70
37646;DHT22;23489;49.600;6.138;2022-08-21T07:08:28;28.00;88.50
37646;DHT22;23489;49.600;6.138;2022-08-21T07:10:57;28.50;85.10
37646;DHT22;23489;49.600;6.138;2022-08-21T07:13:24;29.00;81.50
37646;DHT22;23489;49.600;6.138;2022-08-21T07:15:50;29.30;79.50
37646;DHT22;23489;49.600;6.138;2022-08-21T07:18:16;29.40;77.30
37646;DHT22;23489;49.600;6.138;2022-08-21T07:20:41;29.90;75.50
37646;DHT22;23489;49.600;6.138;2022-08-21T07:23:12;30.70;72.90
37646;DHT22;23489;49.600;6.138;2022-08-21T07:25:38;31.90;69.70
37646;DHT22;23489;49.600;6.138;2022-08-21T07:28:04;32.00;67.50
37646;DHT22;23489;49.600;6.138;2022-08-21T07:30:31;32.30;65.70
37646;DHT22;23489;49.600;6.138;2022-08-21T07:32:57;32.70;63.00
37646;DHT22;23489;49.600;6.138;2022-08-21T07:35:23;33.00;61.50
37646;DHT22;23489;49.600;6.138;2022-08-21T07:37:49;32.90;60.60
37646;DHT22;23489;49.600;6.138;2022-08-21T07:40:16;32.50;61.20
37646;DHT22;23489;49.600;6.138;2022-08-21T07:42:47;32.60;60.10
37646;DHT22;23489;49.600;6.138;2022-08-21T07:45:15;32.60;60.20
37646;DHT22;23489;49.600;6.138;2022-08-21T07:47:41;33.40;58.90
37646;DHT22;23489;49.600;6.138;2022-08-21T07:50:07;34.10;56.90
37646;DHT22;23489;49.600;6.138;2022-08-21T07:52:33;33.90;56.50
37646;DHT22;23489;49.600;6.138;2022-08-21T07:54:59;34.20;56.20
37646;DHT22;23489;49.600;6.138;2022-08-21T07:57:25;34.40;54.70
37646;DHT22;23489;49.600;6.138;2022-08-21T07:59:51;35.20;54.50
37646;DHT22;23489;49.600;6.138;2022-08-21T08:02:28;36.20;51.40
37646;DHT22;23489;49.600;6.138;2022-08-21T08:04:58;34.10;53.20
37646;DHT22;23489;49.600;6.138;2022-08-21T08:07:24;33.60;54.10
37646;DHT22;23489;49.600;6.138;2022-08-21T08:09:50;33.90;53.50
37646;DHT22;23489;49.600;6.138;2022-08-21T08:12:16;32.40;54.70
37646;DHT22;23489;49.600;6.138;2022-08-21T08:14:41;31.90;55.70
37646;DHT22;23489;49.600;6.138;2022-08-21T08:17:07;31.50;55.60
37646;DHT22;23489;49.600;6.138;2022-08-21T08:19:33;31.10;56.40
37646;DHT22;23489;49.600;6.138;2022-08-21T08:21:58;30.10;57.50
37646;DHT22;23489;49.600;6.138;2022-08-21T08:24:24;30.00;58.10
37646;DHT22;23489;49.600;6.138;2022-08-21T08:26:49;29.50;59.10
37646;DHT22;23489;49.600;6.138;2022-08-21T08:29:15;30.30;58.10
37646;DHT22;23489;49.600;6.138;2022-08-21T08:31:41;30.70;57.20
37646;DHT22;23489;49.600;6.138;2022-08-21T08:34:06;30.80;56.40
37646;DHT22;23489;49.600;6.138;2022-08-21T08:36:36;30.90;55.90
37646;DHT22;23489;49.600;6.138;2022-08-21T08:39:04;31.30;55.60
37646;DHT22;23489;49.600;6.138;2022-08-21T08:41:31;32.20;55.10
37646;DHT22;23489;49.600;6.138;2022-08-21T08:44:04;33.10;53.90
37646;DHT22;23489;49.600;6.138;2022-08-21T08:49:11;32.90;53.10
37646;DHT22;23489;49.600;6.138;2022-08-21T08:51:55;33.70;52.50
37646;DHT22;23489;49.600;6.138;2022-08-21T08:54:29;34.80;50.80
37646;DHT22;23489;49.600;6.138;2022-08-21T08:57:02;32.50;52.80
37646;DHT22;23489;49.600;6.138;2022-08-21T08:59:41;31.80;54.30
37646;DHT22;23489;49.600;6.138;2022-08-21T09:02:09;31.50;54.70
37646;DHT22;23489;49.600;6.138;2022-08-21T09:04:36;31.40;54.90
37646;DHT22;23489;49.600;6.138;2022-08-21T09:12:56;31.60;54.80
37646;DHT22;23489;49.600;6.138;2022-08-21T09:27:04;32.20;53.10
37646;DHT22;23489;49.600;6.138;2022-08-21T09:29:41;32.40;52.20
37646;DHT22;23489;49.600;6.138;2022-08-21T09:32:17;32.00;52.60
37646;DHT22;23489;49.600;6.138;2022-08-21T09:37:20;30.60;53.70
37646;DHT22;23489;49.600;6.138;2022-08-21T09:39:46;30.90;54.00
37646;DHT22;23489;49.600;6.138;2022-08-21T09:42:28;31.20;53.40
37646;DHT22;23489;49.600;6.138;2022-08-21T09:45:15;31.80;52.20
37646;DHT22;23489;49.600;6.138;2022-08-21T09:47:41;31.80;52.00
37646;DHT22;23489;49.600;6.138;2022-08-21T09:50:26;32.30;51.60
37646;DHT22;23489;49.600;6.138;2022-08-21T09:52:56;32.30;51.20
37646;DHT22;23489;49.600;6.138;2022-08-21T09:55:32;31.70;52.00
37646;DHT22;23489;49.600;6.138;2022-08-21T09:58:18;31.60;52.00
37646;DHT22;23489;49.600;6.138;2022-08-21T10:00:45;30.80;53.40
37646;DHT22;23489;49.600;6.138;2022-08-21T10:03:19;30.90;53.60
37646;DHT22;23489;49.600;6.138;2022-08-21T10:08:24;30.90;53.80
37646;DHT22;23489;49.600;6.138;2022-08-21T10:10:57;31.10;53.60
37646;DHT22;23489;49.600;6.138;2022-08-21T10:16:31;30.90;53.60
37646;DHT22;23489;49.600;6.138;2022-08-21T10:19:02;30.80;53.90
37646;DHT22;23489;49.600;6.138;2022-08-21T10:24:39;30.20;54.20
37646;DHT22;23489;49.600;6.138;2022-08-21T10:27:39;29.70;55.30
37646;DHT22;23489;49.600;6.138;2022-08-21T10:35:49;30.40;54.90
37646;DHT22;23489;49.600;6.138;2022-08-21T10:43:49;32.10;51.70
37646;DHT22;23489;49.600;6.138;2022-08-21T10:49:22;32.60;50.80
37646;DHT22;23489;49.600;6.138;2022-08-21T10:54:45;33.50;49.70
37646;DHT22;23489;49.600;6.138;2022-08-21T11:00:11;34.50;47.80
37646;DHT22;23489;49.600;6.138;2022-08-21T11:05:33;33.60;47.70
37646;DHT22;23489;49.600;6.138;2022-08-21T11:08:30;31.80;50.20
37646;DHT22;23489;49.600;6.138;2022-08-21T11:11:25;31.30;51.60
37646;DHT22;23489;49.600;6.138;2022-08-21T11:13:54;30.20;52.50
37646;DHT22;23489;49.600;6.138;2022-08-21T11:18:52;29.40;54.00
37646;DHT22;23489;49.600;6.138;2022-08-21T11:21:30;28.60;54.50
37646;DHT22;23489;49.600;6.138;2022-08-21T11:29:36;27.30;57.50
37646;DHT22;23489;49.600;6.138;2022-08-21T11:42:41;27.40;57.40
37646;DHT22;23489;49.600;6.138;2022-08-21T11:50:40;26.90;57.20
37646;DHT22;23489;49.600;6.138;2022-08-21T11:53:40;26.50;57.60
37646;DHT22;23489;49.600;6.138;2022-08-21T11:56:03;26.60;57.40
37646;DHT22;23489;49.600;6.138;2022-08-21T11:58:37;26.50;57.70
37646;DHT22;23489;49.600;6.138;2022-08-21T12:01:05;26.60;57.40
37646;DHT22;23489;49.600;6.138;2022-08-21T12:03:32;26.70;57.50
37646;DHT22;23489;49.600;6.138;2022-08-21T12:06:00;26.70;57.10
37646;DHT22;23489;49.600;6.138;2022-08-21T12:11:21;26.60;57.30
37646;DHT22;23489;49.600;6.138;2022-08-21T12:13:52;26.90;57.60
37646;DHT22;23489;49.600;6.138;2022-08-21T12:16:28;26.60;57.70
37646;DHT22;23489;49.600;6.138;2022-08-21T12:19:08;26.30;58.30
37646;DHT22;23489;49.600;6.138;2022-08-21T12:21:34;26.10;58.40
37646;DHT22;23489;49.600;6.138;2022-08-21T12:26:54;25.90;59.30
37646;DHT22;23489;49.600;6.138;2022-08-21T12:29:30;25.90;58.90
37646;DHT22;23489;49.600;6.138;2022-08-21T12:32:04;26.30;58.00
37646;DHT22;23489;49.600;6.138;2022-08-21T12:34:45;26.80;58.00
37646;DHT22;23489;49.600;6.138;2022-08-21T12:37:15;26.80;57.70
37646;DHT22;23489;49.600;6.138;2022-08-21T12:39:43;26.80;58.00
37646;DHT22;23489;49.600;6.138;2022-08-21T12:44:43;27.10;57.50
37646;DHT22;23489;49.600;6.138;2022-08-21T12:47:24;27.00;57.00
37646;DHT22;23489;49.600;6.138;2022-08-21T12:52:40;26.60;55.70
37646;DHT22;23489;49.600;6.138;2022-08-21T12:55:07;26.50;56.70
37646;DHT22;23489;49.600;6.138;2022-08-21T12:57:36;26.50;56.50
37646;DHT22;23489;49.600;6.138;2022-08-21T13:00:04;26.40;56.40
37646;DHT22;23489;49.600;6.138;2022-08-21T13:02:33;26.40;56.30
37646;DHT22;23489;49.600;6.138;2022-08-21T13:05:04;26.50;56.50
37646;DHT22;23489;49.600;6.138;2022-08-21T13:07:31;26.60;57.20
37646;DHT22;23489;49.600;6.138;2022-08-21T13:10:03;26.70;57.40
37646;DHT22;23489;49.600;6.138;2022-08-21T13:12:29;26.90;57.50
37646;DHT22;23489;49.600;6.138;2022-08-21T13:14:56;27.00;57.20
37646;DHT22;23489;49.600;6.138;2022-08-21T13:17:23;27.00;57.30
37646;DHT22;23489;49.600;6.138;2022-08-21T13:19:53;27.10;56.90
37646;DHT22;23489;49.600;6.138;2022-08-21T13:22:18;27.00;56.40
37646;DHT22;23489;49.600;6.138;2022-08-21T13:24:46;26.80;56.90
37646;DHT22;23489;49.600;6.138;2022-08-21T13:27:20;26.60;57.00
37646;DHT22;23489;49.600;6.138;2022-08-21T13:29:46;26.50;57.60
37646;DHT22;23489;49.600;6.138;2022-08-21T13:32:21;26.40;57.60
37646;DHT22;23489;49.600;6.138;2022-08-21T13:34:46;26.30;57.60
37646;DHT22;23489;49.600;6.138;2022-08-21T13:37:12;26.30;57.90
37646;DHT22;23489;49.600;6.138;2022-08-21T13:39:39;26.20;56.70
37646;DHT22;23489;49.600;6.138;2022-08-21T13:42:08;26.20;56.80
37646;DHT22;23489;49.600;6.138;2022-08-21T13:44:36;26.30;57.10
37646;DHT22;23489;49.600;6.138;2022-08-21T13:47:04;26.40;56.30
37646;DHT22;23489;49.600;6.138;2022-08-21T13:49:32;26.50;56.30
37646;DHT22;23489;49.600;6.138;2022-08-21T13:51:58;26.70;56.80
37646;DHT22;23489;49.600;6.138;2022-08-21T13:54:25;26.80;56.80
37646;DHT22;23489;49.600;6.138;2022-08-21T13:56:52;27.00;56.70
37646;DHT22;23489;49.600;6.138;2022-08-21T13:59:25;27.20;56.30
37646;DHT22;23489;49.600;6.138;2022-08-21T14:01:52;27.20;56.60
37646;DHT22;23489;49.600;6.138;2022-08-21T14:04:20;27.30;56.40
37646;DHT22;23489;49.600;6.138;2022-08-21T14:06:47;27.10;56.30
37646;DHT22;23489;49.600;6.138;2022-08-21T14:09:25;26.90;56.50
37646;DHT22;23489;49.600;6.138;2022-08-21T14:11:52;26.90;56.60
37646;DHT22;23489;49.600;6.138;2022-08-21T14:14:31;26.70;56.80
37646;DHT22;23489;49.600;6.138;2022-08-21T14:17:05;26.70;56.40
37646;DHT22;23489;49.600;6.138;2022-08-21T14:22:00;26.30;56.90
37646;DHT22;23489;49.600;6.138;2022-08-21T14:24:27;26.10;57.50
37646;DHT22;23489;49.600;6.138;2022-08-21T14:26:57;26.10;57.30
37646;DHT22;23489;49.600;6.138;2022-08-21T14:29:26;26.10;57.30
37646;DHT22;23489;49.600;6.138;2022-08-21T14:31:54;26.00;57.50
37646;DHT22;23489;49.600;6.138;2022-08-21T14:34:21;26.00;57.80
37646;DHT22;23489;49.600;6.138;2022-08-21T14:36:47;25.80;57.60
37646;DHT22;23489;49.600;6.138;2022-08-21T14:39:13;26.00;58.10
37646;DHT22;23489;49.600;6.138;2022-08-21T14:41:39;26.10;58.20
37646;DHT22;23489;49.600;6.138;2022-08-21T14:44:04;26.10;57.90
37646;DHT22;23489;49.600;6.138;2022-08-21T14:46:30;26.30;57.90
37646;DHT22;23489;49.600;6.138;2022-08-21T14:48:57;26.50;57.90
37646;DHT22;23489;49.600;6.138;2022-08-21T14:51:23;26.60;57.40
37646;DHT22;23489;49.600;6.138;2022-08-21T14:53:48;26.70;57.30
37646;DHT22;23489;49.600;6.138;2022-08-21T14:56:14;26.70;57.10
37646;DHT22;23489;49.600;6.138;2022-08-21T14:58:44;26.80;56.90
37646;DHT22;23489;49.600;6.138;2022-08-21T15:01:11;27.00;56.90
37646;DHT22;23489;49.600;6.138;2022-08-21T15:03:38;27.20;56.50
37646;DHT22;23489;49.600;6.138;2022-08-21T15:06:03;27.20;55.20
37646;DHT22;23489;49.600;6.138;2022-08-21T15:08:29;27.20;55.80
37646;DHT22;23489;49.600;6.138;2022-08-21T15:10:55;27.10;56.20
37646;DHT22;23489;49.600;6.138;2022-08-21T15:13:21;27.10;56.20
37646;DHT22;23489;49.600;6.138;2022-08-21T15:15:47;27.20;56.10
37646;DHT22;23489;49.600;6.138;2022-08-21T15:18:13;27.30;55.80
37646;DHT22;23489;49.600;6.138;2022-08-21T15:20:39;27.30;56.10
37646;DHT22;23489;49.600;6.138;2022-08-21T15:23:05;26.90;56.90
37646;DHT22;23489;49.600;6.138;2022-08-21T15:25:31;26.70;57.30
37646;DHT22;23489;49.600;6.138;2022-08-21T15:27:58;26.70;57.40
37646;DHT22;23489;49.600;6.138;2022-08-21T15:30:24;26.40;57.80
37646;DHT22;23489;49.600;6.138;2022-08-21T15:32:49;26.40;57.80
37646;DHT22;23489;49.600;6.138;2022-08-21T15:35:15;26.30;58.10
37646;DHT22;23489;49.600;6.138;2022-08-21T15:37:40;26.20;58.00
37646;DHT22;23489;49.600;6.138;2022-08-21T15:40:06;26.30;58.00
37646;DHT22;23489;49.600;6.138;2022-08-21T15:42:33;26.30;58.50
37646;DHT22;23489;49.600;6.138;2022-08-21T15:44:59;26.40;58.00
37646;DHT22;23489;49.600;6.138;2022-08-21T15:47:28;26.30;58.10
37646;DHT22;23489;49.600;6.138;2022-08-21T15:49:54;26.30;58.20
37646;DHT22;23489;49.600;6.138;2022-08-21T15:52:20;26.30;58.40
37646;DHT22;23489;49.600;6.138;2022-08-21T15:54:46;26.40;58.40
37646;DHT22;23489;49.600;6.138;2022-08-21T15:57:13;26.40;58.30
37646;DHT22;23489;49.600;6.138;2022-08-21T15:59:39;26.30;58.60
37646;DHT22;23489;49.600;6.138;2022-08-21T16:02:06;26.30;58.70
37646;DHT22;23489;49.600;6.138;2022-08-21T16:04:33;26.30;59.00
37646;DHT22;23489;49.600;6.138;2022-08-21T16:06:58;26.20;59.30
37646;DHT22;23489;49.600;6.138;2022-08-21T16:09:24;26.10;59.60
37646;DHT22;23489;49.600;6.138;2022-08-21T16:11:49;26.00;59.70
37646;DHT22;23489;49.600;6.138;2022-08-21T16:14:16;25.90;59.50
37646;DHT22;23489;49.600;6.138;2022-08-21T16:16:42;25.90;59.60
37646;DHT22;23489;49.600;6.138;2022-08-21T16:19:08;25.80;60.30
37646;DHT22;23489;49.600;6.138;2022-08-21T16:21:35;25.70;60.10
37646;DHT22;23489;49.600;6.138;2022-08-21T16:24:01;25.70;60.30
37646;DHT22;23489;49.600;6.138;2022-08-21T16:26:27;25.60;60.00
37646;DHT22;23489;49.600;6.138;2022-08-21T16:28:54;25.60;60.10
37646;DHT22;23489;49.600;6.138;2022-08-21T16:31:22;25.50;60.20
37646;DHT22;23489;49.600;6.138;2022-08-21T16:33:49;25.50;60.10
37646;DHT22;23489;49.600;6.138;2022-08-21T16:36:15;25.50;60.50
37646;DHT22;23489;49.600;6.138;2022-08-21T16:38:41;25.50;60.60
37646;DHT22;23489;49.600;6.138;2022-08-21T16:41:10;25.40;60.70
37646;DHT22;23489;49.600;6.138;2022-08-21T16:43:36;25.40;60.90
37646;DHT22;23489;49.600;6.138;2022-08-21T16:46:03;25.30;61.20
37646;DHT22;23489;49.600;6.138;2022-08-21T16:48:28;25.20;61.00
37646;DHT22;23489;49.600;6.138;2022-08-21T16:50:54;25.20;61.30
37646;DHT22;23489;49.600;6.138;2022-08-21T16:53:20;25.20;61.60
37646;DHT22;23489;49.600;6.138;2022-08-21T16:55:46;25.30;61.60
37646;DHT22;23489;49.600;6.138;2022-08-21T17:00:52;25.10;62.00
37646;DHT22;23489;49.600;6.138;2022-08-21T17:03:19;25.10;62.10
37646;DHT22;23489;49.600;6.138;2022-08-21T17:05:46;25.00;62.60
37646;DHT22;23489;49.600;6.138;2022-08-21T17:08:11;25.00;62.60
37646;DHT22;23489;49.600;6.138;2022-08-21T17:10:37;25.10;62.70